createdAt,value
2019-03-28T00:00:06.122Z,22.70
2019-03-28T00:01:09.607Z,22.70
2019-03-28T00:02:13.011Z,22.70
2019-03-28T00:03:18.117Z,22.70
2019-03-28T00:04:21.398Z,22.70
2019-03-28T00:05:25.591Z,22.70
2019-03-28T00:06:28.905Z,22.70
2019-03-28T00:07:32.587Z,22.70
2019-03-28T00:08:35.903Z,22.70
2019-03-28T00:09:39.267Z,22.70
2019-03-28T00:10:42.552Z,22.70
2019-03-28T00:11:45.848Z,22.70
2019-03-28T00:12:49.136Z,22.70
2019-03-28T00:13:55.163Z,22.70
2019-03-28T00:14:58.876Z,22.70
2019-03-28T00:16:02.185Z,22.70
2019-03-28T00:17:05.538Z,22.70
2019-03-28T00:18:08.827Z,22.70
2019-03-28T00:19:12.135Z,22.70
2019-03-28T00:20:16.529Z,22.70
2019-03-28T00:21:22.980Z,22.70
2019-03-28T00:22:26.287Z,22.70
2019-03-28T00:23:29.931Z,22.70
2019-03-28T00:24:33.238Z,22.70
2019-03-28T00:25:36.518Z,22.70
2019-03-28T00:26:39.799Z,22.70
2019-03-28T00:27:43.671Z,22.70
2019-03-28T00:28:46.958Z,22.70
2019-03-28T00:29:50.596Z,22.70
2019-03-28T00:30:53.870Z,22.70
2019-03-28T00:31:58.900Z,22.60
2019-03-28T00:33:02.175Z,22.70
2019-03-28T00:34:05.584Z,22.70
2019-03-28T00:35:08.890Z,22.60
2019-03-28T00:36:12.162Z,22.70
2019-03-28T00:37:15.470Z,22.60
2019-03-28T00:38:18.751Z,22.70
2019-03-28T00:39:22.039Z,22.60
2019-03-28T00:40:25.667Z,22.60
2019-03-28T00:41:28.939Z,22.70
2019-03-28T00:42:35.153Z,22.70
2019-03-28T00:43:39.590Z,22.60
2019-03-28T00:44:42.935Z,22.70
2019-03-28T00:45:46.246Z,22.70
2019-03-28T00:46:50.448Z,22.60
2019-03-28T00:47:53.751Z,22.70
2019-03-28T00:48:57.038Z,22.60
2019-03-28T00:50:00.752Z,22.60
2019-03-28T00:51:05.932Z,22.60
2019-03-28T00:52:12.435Z,22.60
2019-03-28T00:53:15.920Z,22.70
2019-03-28T00:54:19.282Z,22.60
2019-03-28T00:55:22.587Z,22.60
2019-03-28T00:56:25.887Z,22.60
2019-03-28T00:57:29.343Z,22.70
2019-03-28T00:58:35.322Z,22.70
2019-03-28T00:59:38.679Z,22.70
2019-03-28T01:00:41.960Z,22.60
2019-03-28T01:01:45.264Z,22.60
2019-03-28T01:02:48.623Z,22.60
2019-03-28T01:03:52.243Z,22.70
2019-03-28T01:04:55.571Z,22.60
2019-03-28T01:06:02.458Z,22.70
2019-03-28T01:07:05.860Z,22.70
2019-03-28T01:08:09.137Z,22.60
2019-03-28T01:09:12.739Z,22.60
2019-03-28T01:10:16.047Z,22.70
2019-03-28T01:11:19.322Z,22.60
2019-03-28T01:12:22.735Z,22.60
2019-03-28T01:13:26.423Z,22.60
2019-03-28T01:14:31.610Z,22.60
2019-03-28T01:15:34.923Z,22.70
2019-03-28T01:16:38.194Z,22.60
2019-03-28T01:17:42.367Z,22.70
2019-03-28T01:18:45.672Z,22.60
2019-03-28T01:19:49.258Z,22.70
2019-03-28T01:20:53.461Z,22.60
2019-03-28T01:21:56.735Z,22.60
2019-03-28T01:23:01.275Z,22.70
2019-03-28T01:24:04.675Z,22.60
2019-03-28T01:25:08.040Z,22.60
2019-03-28T01:26:11.339Z,22.60
2019-03-28T01:27:14.907Z,22.60
2019-03-28T01:28:18.220Z,22.70
2019-03-28T01:29:21.578Z,22.70
2019-03-28T01:30:24.863Z,22.60
2019-03-28T01:31:28.196Z,22.60
2019-03-28T01:32:31.770Z,22.60
2019-03-28T01:33:35.441Z,22.60
2019-03-28T01:34:38.764Z,22.60
2019-03-28T01:35:42.111Z,22.60
2019-03-28T01:36:45.416Z,22.70
2019-03-28T01:37:48.690Z,22.60
2019-03-28T01:38:52.256Z,22.60
2019-03-28T01:39:55.573Z,22.60
2019-03-28T01:40:58.849Z,22.60
2019-03-28T01:42:05.014Z,22.60
2019-03-28T01:43:08.316Z,22.60
2019-03-28T01:44:11.954Z,22.60
2019-03-28T01:45:15.269Z,22.60
2019-03-28T01:46:18.542Z,22.60
2019-03-28T01:47:22.111Z,22.60
2019-03-28T01:48:25.623Z,22.60
2019-03-28T01:49:29.083Z,22.60
2019-03-28T01:50:35.463Z,22.60
2019-03-28T01:51:38.764Z,22.60
2019-03-28T01:52:42.043Z,22.60
2019-03-28T01:53:45.645Z,22.60
2019-03-28T01:54:49.005Z,22.60
2019-03-28T01:55:54.347Z,22.60
2019-03-28T01:57:09.969Z,22.60
2019-03-28T01:58:03.263Z,22.60
2019-03-28T01:59:06.538Z,22.60
2019-03-28T02:00:10.105Z,22.60
2019-03-28T02:01:13.733Z,22.60
2019-03-28T02:02:20.219Z,22.60
2019-03-28T02:03:23.712Z,22.60
2019-03-28T02:04:27.200Z,22.60
2019-03-28T02:05:30.835Z,22.60
2019-03-28T02:06:34.306Z,22.60
2019-03-28T02:07:38.120Z,22.60
2019-03-28T02:08:41.713Z,22.60
2019-03-28T02:09:46.858Z,22.60
2019-03-28T02:10:50.316Z,22.60
2019-03-28T02:11:53.630Z,22.60
2019-03-28T02:12:56.931Z,22.60
2019-03-28T02:14:01.079Z,22.60
2019-03-28T02:15:06.731Z,22.60
2019-03-28T02:16:11.710Z,22.60
2019-03-28T02:17:14.999Z,22.60
2019-03-28T02:18:18.300Z,22.60
2019-03-28T02:19:21.943Z,22.60
2019-03-28T02:20:25.258Z,22.60
2019-03-28T02:21:29.231Z,22.60
2019-03-28T02:22:32.591Z,22.60
2019-03-28T02:23:36.273Z,22.60
2019-03-28T02:24:42.759Z,22.60
2019-03-28T02:25:46.047Z,22.60
2019-03-28T02:26:49.351Z,22.60
2019-03-28T02:27:52.627Z,22.60
2019-03-28T02:28:55.929Z,22.60
2019-03-28T02:29:59.215Z,22.60
2019-03-28T02:31:02.533Z,22.60
2019-03-28T02:32:05.886Z,22.60
2019-03-28T02:33:09.716Z,22.60
2019-03-28T02:34:13.083Z,22.60
2019-03-28T02:35:16.368Z,22.60
2019-03-28T02:36:19.675Z,22.60
2019-03-28T02:37:22.947Z,22.60
2019-03-28T02:38:26.244Z,22.60
2019-03-28T02:39:29.961Z,22.60
2019-03-28T02:40:33.178Z,22.60
2019-03-28T02:41:36.577Z,22.60
2019-03-28T02:42:40.814Z,22.60
2019-03-28T02:43:44.782Z,22.60
2019-03-28T02:44:48.920Z,22.60
2019-03-28T02:45:52.371Z,22.60
2019-03-28T02:46:55.775Z,22.60
2019-03-28T02:47:59.054Z,22.60
2019-03-28T02:49:02.362Z,22.60
2019-03-28T02:50:07.367Z,22.60
2019-03-28T02:51:13.824Z,22.60
2019-03-28T02:52:17.128Z,22.60
2019-03-28T02:53:20.412Z,22.60
2019-03-28T02:54:24.024Z,22.60
2019-03-28T02:55:27.510Z,22.60
2019-03-28T02:56:30.858Z,22.60
2019-03-28T02:57:41.432Z,22.60
2019-03-28T02:58:42.069Z,22.60
2019-03-28T02:59:45.428Z,22.60
2019-03-28T03:00:49.128Z,22.60
2019-03-28T03:01:53.316Z,22.60
2019-03-28T03:02:58.343Z,22.60
2019-03-28T03:04:01.620Z,22.60
2019-03-28T03:05:06.761Z,22.60
2019-03-28T03:06:10.360Z,22.60
2019-03-28T03:07:14.240Z,22.60
2019-03-28T03:08:17.548Z,22.60
2019-03-28T03:09:20.892Z,22.60
2019-03-28T03:10:25.899Z,22.60
2019-03-28T03:11:29.194Z,22.60
2019-03-28T03:12:32.944Z,22.60
2019-03-28T03:13:36.359Z,22.60
2019-03-28T03:14:40.009Z,22.60
2019-03-28T03:15:43.324Z,22.60
2019-03-28T03:16:46.699Z,22.60
2019-03-28T03:17:49.984Z,22.60
2019-03-28T03:18:53.314Z,22.60
2019-03-28T03:19:58.409Z,22.60
2019-03-28T03:21:02.010Z,22.60
2019-03-28T03:22:05.323Z,22.60
2019-03-28T03:23:08.671Z,22.60
2019-03-28T03:24:11.996Z,22.50
2019-03-28T03:25:15.481Z,22.60
2019-03-28T03:26:18.824Z,22.60
2019-03-28T03:27:22.202Z,22.60
2019-03-28T03:28:25.475Z,22.60
2019-03-28T03:29:30.450Z,22.50
2019-03-28T03:30:36.520Z,22.60
2019-03-28T03:31:40.746Z,22.60
2019-03-28T03:32:44.044Z,22.60
2019-03-28T03:33:47.357Z,22.60
2019-03-28T03:34:50.779Z,22.60
2019-03-28T03:35:54.410Z,22.60
2019-03-28T03:36:58.516Z,22.60
2019-03-28T03:38:04.669Z,22.50
2019-03-28T03:39:08.760Z,22.60
2019-03-28T03:40:12.142Z,22.60
2019-03-28T03:41:15.505Z,22.60
2019-03-28T03:42:19.131Z,22.60
2019-03-28T03:43:23.138Z,22.60
2019-03-28T03:44:29.341Z,22.60
2019-03-28T03:45:32.973Z,22.60
2019-03-28T03:46:36.287Z,22.60
2019-03-28T03:47:39.638Z,22.60
2019-03-28T03:48:42.951Z,22.60
2019-03-28T03:49:46.302Z,22.60
2019-03-28T03:50:49.587Z,22.50
2019-03-28T03:51:53.194Z,22.50
2019-03-28T03:52:57.273Z,22.50
2019-03-28T03:54:01.015Z,22.50
2019-03-28T03:55:05.737Z,22.50
2019-03-28T03:56:09.023Z,22.60
2019-03-28T03:57:12.323Z,22.50
2019-03-28T03:58:16.999Z,22.50
2019-03-28T03:59:20.926Z,22.50
2019-03-28T04:00:29.695Z,22.60
2019-03-28T04:01:33.076Z,22.60
2019-03-28T04:02:36.669Z,22.50
2019-03-28T04:03:40.664Z,22.50
2019-03-28T04:04:43.929Z,22.60
2019-03-28T04:05:47.200Z,22.50
2019-03-28T04:06:52.891Z,22.60
2019-03-28T04:07:56.790Z,22.50
2019-03-28T04:09:00.062Z,22.50
2019-03-28T04:10:05.270Z,22.50
2019-03-28T04:11:08.531Z,22.50
2019-03-28T04:12:12.157Z,22.50
2019-03-28T04:13:15.838Z,22.60
2019-03-28T04:14:19.105Z,22.50
2019-03-28T04:15:22.710Z,22.50
2019-03-28T04:16:25.987Z,22.50
2019-03-28T04:17:30.954Z,22.50
2019-03-28T04:18:34.227Z,22.50
2019-03-28T04:19:37.579Z,22.50
2019-03-28T04:20:40.943Z,22.50
2019-03-28T04:21:44.259Z,22.60
2019-03-28T04:22:47.655Z,22.50
2019-03-28T04:23:50.993Z,22.50
2019-03-28T04:24:54.262Z,22.50
2019-03-28T04:25:57.615Z,22.50
2019-03-28T04:27:01.629Z,22.50
2019-03-28T04:28:07.716Z,22.50
2019-03-28T04:29:11.002Z,22.50
2019-03-28T04:30:14.305Z,22.50
2019-03-28T04:31:17.579Z,22.50
2019-03-28T04:32:20.909Z,22.50
2019-03-28T04:33:24.272Z,22.50
2019-03-28T04:34:27.552Z,22.50
2019-03-28T04:35:31.113Z,22.60
2019-03-28T04:36:37.463Z,22.60
2019-03-28T04:37:40.752Z,22.50
2019-03-28T04:38:44.059Z,22.50
2019-03-28T04:39:47.661Z,22.60
2019-03-28T04:40:50.993Z,22.50
2019-03-28T04:41:54.355Z,22.50
2019-03-28T04:42:57.631Z,22.60
2019-03-28T04:44:00.943Z,22.60
2019-03-28T04:45:05.562Z,22.50
2019-03-28T04:46:09.047Z,22.50
2019-03-28T04:47:12.326Z,22.50
2019-03-28T04:48:15.630Z,22.50
2019-03-28T04:49:19.259Z,22.50
2019-03-28T04:50:22.540Z,22.50
2019-03-28T04:51:25.948Z,22.50
2019-03-28T04:52:31.833Z,22.50
2019-03-28T04:53:34.564Z,22.50
2019-03-28T04:54:38.028Z,22.50
2019-03-28T04:55:42.793Z,22.60
2019-03-28T04:56:46.491Z,22.50
2019-03-28T04:57:49.931Z,22.50
2019-03-28T04:58:53.216Z,22.50
2019-03-28T04:59:56.518Z,22.50
2019-03-28T05:00:59.797Z,22.50
2019-03-28T05:02:04.379Z,22.50
2019-03-28T05:03:08.236Z,22.50
2019-03-28T05:04:15.290Z,22.50
2019-03-28T05:05:18.734Z,22.50
2019-03-28T05:06:22.039Z,22.60
2019-03-28T05:07:25.379Z,22.50
2019-03-28T05:08:33.406Z,22.50
2019-03-28T05:09:38.183Z,22.50
2019-03-28T05:10:42.809Z,22.50
2019-03-28T05:11:46.160Z,22.50
2019-03-28T05:12:51.528Z,22.50
2019-03-28T05:13:55.960Z,22.50
2019-03-28T05:14:59.263Z,22.50
2019-03-28T05:16:02.576Z,22.50
2019-03-28T05:17:06.002Z,22.60
2019-03-28T05:18:09.320Z,22.50
2019-03-28T05:19:12.955Z,22.50
2019-03-28T05:20:16.343Z,22.60
2019-03-28T05:21:22.222Z,22.50
2019-03-28T05:22:25.535Z,22.60
2019-03-28T05:23:28.892Z,22.50
2019-03-28T05:24:32.493Z,22.50
2019-03-28T05:25:36.803Z,22.50
2019-03-28T05:26:41.783Z,22.50
2019-03-28T05:27:45.100Z,22.50
2019-03-28T05:28:57.366Z,22.50
2019-03-28T05:29:53.378Z,22.50
2019-03-28T05:30:56.683Z,22.50
2019-03-28T05:32:00.394Z,22.60
2019-03-28T05:33:05.550Z,22.60
2019-03-28T05:34:08.935Z,22.50
2019-03-28T05:35:12.214Z,22.50
2019-03-28T05:36:15.523Z,22.50
2019-03-28T05:37:18.923Z,22.50
2019-03-28T05:38:22.199Z,22.50
2019-03-28T05:39:25.510Z,22.50
2019-03-28T05:40:28.859Z,22.50
2019-03-28T05:41:32.135Z,22.50
2019-03-28T05:42:35.439Z,22.50
2019-03-28T05:43:38.718Z,22.50
2019-03-28T05:44:42.024Z,22.50
2019-03-28T05:45:47.671Z,22.60
2019-03-28T05:46:51.159Z,22.50
2019-03-28T05:47:54.476Z,22.60
2019-03-28T05:48:57.761Z,22.60
2019-03-28T05:50:01.040Z,22.50
2019-03-28T05:51:05.396Z,22.60
2019-03-28T05:52:11.596Z,22.50
2019-03-28T05:53:16.548Z,22.50
2019-03-28T05:54:19.910Z,22.50
2019-03-28T05:55:23.211Z,22.50
2019-03-28T05:56:26.491Z,22.60
2019-03-28T05:57:29.793Z,22.60
2019-03-28T05:58:33.104Z,22.50
2019-03-28T05:59:36.766Z,22.50
2019-03-28T06:00:40.860Z,22.50
2019-03-28T06:01:44.286Z,22.50
2019-03-28T06:02:47.658Z,22.50
2019-03-28T06:03:50.967Z,22.50
2019-03-28T06:04:54.327Z,22.50
2019-03-28T06:05:57.991Z,22.60
2019-03-28T06:07:02.193Z,22.50
2019-03-28T06:08:07.166Z,22.50
2019-03-28T06:09:10.486Z,22.50
2019-03-28T06:10:16.244Z,22.50
2019-03-28T06:11:18.893Z,22.50
2019-03-28T06:12:22.202Z,22.50
2019-03-28T06:13:25.561Z,22.50
2019-03-28T06:14:28.895Z,22.50
2019-03-28T06:15:33.962Z,22.60
2019-03-28T06:16:37.234Z,22.50
2019-03-28T06:17:40.547Z,22.50
2019-03-28T06:18:43.898Z,22.50
2019-03-28T06:19:47.179Z,22.50
2019-03-28T06:20:50.493Z,22.50
2019-03-28T06:21:53.920Z,22.50
2019-03-28T06:22:57.596Z,22.60
2019-03-28T06:24:02.928Z,22.50
2019-03-28T06:25:06.414Z,22.50
2019-03-28T06:26:10.035Z,22.50
2019-03-28T06:27:13.315Z,22.50
2019-03-28T06:28:16.552Z,22.50
2019-03-28T06:29:24.042Z,22.60
2019-03-28T06:30:24.915Z,22.50
2019-03-28T06:31:28.559Z,22.60
2019-03-28T06:32:42.315Z,22.60
2019-03-28T06:33:38.497Z,22.50
2019-03-28T06:34:42.792Z,22.60
2019-03-28T06:35:46.100Z,22.50
2019-03-28T06:36:49.479Z,22.60
2019-03-28T06:37:52.755Z,22.60
2019-03-28T06:38:56.071Z,22.60
2019-03-28T06:39:59.354Z,22.60
2019-03-28T06:41:02.631Z,22.50
2019-03-28T06:42:05.969Z,22.60
2019-03-28T06:43:11.337Z,22.60
2019-03-28T06:44:14.822Z,22.60
2019-03-28T06:45:18.127Z,22.60
2019-03-28T06:46:21.402Z,22.60
2019-03-28T06:47:24.707Z,22.60
2019-03-28T06:48:27.994Z,22.60
2019-03-28T06:49:31.282Z,22.60
2019-03-28T06:50:34.587Z,22.60
2019-03-28T06:51:37.863Z,22.60
2019-03-28T06:52:41.163Z,22.60
2019-03-28T06:53:46.815Z,22.60
2019-03-28T06:54:50.435Z,22.60
2019-03-28T06:55:53.735Z,22.60
2019-03-28T06:56:57.019Z,22.40
2019-03-28T06:58:00.383Z,22.00
2019-03-28T06:59:04.264Z,21.70
2019-03-28T07:00:10.397Z,21.50
2019-03-28T07:01:16.555Z,21.50
2019-03-28T07:02:21.946Z,21.60
2019-03-28T07:03:24.843Z,21.70
2019-03-28T07:04:28.131Z,21.80
2019-03-28T07:05:31.443Z,21.80
2019-03-28T07:06:34.747Z,21.90
2019-03-28T07:07:38.034Z,22.00
2019-03-28T07:08:41.331Z,22.00
2019-03-28T07:09:44.616Z,22.10
2019-03-28T07:10:49.729Z,22.10
2019-03-28T07:11:54.819Z,22.10
2019-03-28T07:12:58.162Z,22.10
2019-03-28T07:14:02.366Z,22.10
2019-03-28T07:15:07.175Z,22.10
2019-03-28T07:16:10.460Z,22.20
2019-03-28T07:17:13.767Z,22.20
2019-03-28T07:18:17.051Z,22.20
2019-03-28T07:19:21.103Z,22.20
2019-03-28T07:20:26.360Z,22.20
2019-03-28T07:21:30.246Z,22.20
2019-03-28T07:22:33.643Z,22.30
2019-03-28T07:23:37.035Z,22.30
2019-03-28T07:24:40.320Z,22.30
2019-03-28T07:25:43.629Z,22.30
2019-03-28T07:26:46.979Z,22.30
2019-03-28T07:27:50.347Z,22.30
2019-03-28T07:28:54.459Z,22.30
2019-03-28T07:29:57.876Z,22.30
2019-03-28T07:31:01.184Z,22.30
2019-03-28T07:32:07.407Z,22.30
2019-03-28T07:33:10.979Z,22.30
2019-03-28T07:34:14.288Z,22.30
2019-03-28T07:35:17.646Z,22.40
2019-03-28T07:36:21.239Z,22.40
2019-03-28T07:37:24.523Z,22.40
2019-03-28T07:38:28.835Z,22.40
2019-03-28T07:39:32.505Z,22.40
2019-03-28T07:40:36.876Z,22.40
2019-03-28T07:41:41.045Z,22.40
2019-03-28T07:42:44.607Z,22.40
2019-03-28T07:43:47.912Z,22.40
2019-03-28T07:44:51.503Z,22.50
2019-03-28T07:45:55.097Z,22.50
2019-03-28T07:46:58.505Z,22.50
2019-03-28T07:48:01.872Z,22.50
2019-03-28T07:49:05.147Z,22.50
2019-03-28T07:50:08.567Z,22.50
2019-03-28T07:51:11.923Z,22.60
2019-03-28T07:52:15.165Z,22.60
2019-03-28T07:53:20.011Z,22.60
2019-03-28T07:54:23.538Z,22.60
2019-03-28T07:55:29.480Z,22.60
2019-03-28T07:56:32.835Z,22.70
2019-03-28T07:57:36.119Z,22.70
2019-03-28T07:58:39.421Z,22.70
2019-03-28T07:59:44.058Z,22.70
2019-03-28T08:00:47.692Z,22.70
2019-03-28T08:01:53.057Z,22.70
2019-03-28T08:02:58.503Z,22.80
2019-03-28T08:04:02.040Z,22.80
2019-03-28T08:05:07.159Z,22.80
2019-03-28T08:06:12.784Z,22.80
2019-03-28T08:07:15.561Z,22.80
2019-03-28T08:08:18.847Z,22.80
2019-03-28T08:09:22.155Z,22.90
2019-03-28T08:10:25.526Z,22.80
2019-03-28T08:11:29.604Z,22.90
2019-03-28T08:12:35.810Z,22.90
2019-03-28T08:13:39.442Z,22.90
2019-03-28T08:14:43.132Z,22.90
2019-03-28T08:15:46.586Z,22.90
2019-03-28T08:16:49.901Z,22.90
2019-03-28T08:17:53.172Z,22.90
2019-03-28T08:18:56.460Z,23.00
2019-03-28T08:19:59.772Z,23.00
2019-03-28T08:21:03.051Z,23.00
2019-03-28T08:22:06.364Z,23.00
2019-03-28T08:23:09.592Z,23.00
2019-03-28T08:24:12.866Z,23.00
2019-03-28T08:25:16.275Z,23.10
2019-03-28T08:26:19.554Z,23.10
2019-03-28T08:27:22.834Z,23.10
2019-03-28T08:28:26.243Z,23.20
2019-03-28T08:29:29.586Z,23.20
2019-03-28T08:30:37.575Z,23.20
2019-03-28T08:31:42.617Z,23.20
2019-03-28T08:32:46.571Z,23.30
2019-03-28T08:33:49.877Z,23.30
2019-03-28T08:34:53.516Z,23.30
2019-03-28T08:35:57.053Z,23.30
2019-03-28T08:37:02.235Z,23.40
2019-03-28T08:38:09.413Z,23.30
2019-03-28T08:39:10.965Z,23.40
2019-03-28T08:40:32.270Z,23.40
2019-03-28T08:41:35.649Z,23.40
2019-03-28T08:42:39.553Z,23.40
2019-03-28T08:43:42.946Z,23.40
2019-03-28T08:44:46.314Z,23.50
2019-03-28T08:45:50.611Z,23.50
2019-03-28T08:46:53.963Z,23.50
2019-03-28T08:48:00.213Z,23.50
2019-03-28T08:49:03.820Z,23.50
2019-03-28T08:50:07.203Z,23.80
2019-03-28T08:51:10.883Z,24.60
2019-03-28T08:52:14.568Z,25.60
2019-03-28T08:53:21.332Z,26.60
2019-03-28T08:54:24.628Z,27.60
2019-03-28T08:55:29.703Z,28.10
2019-03-28T08:56:34.683Z,28.50
2019-03-28T08:57:37.963Z,28.80
2019-03-28T08:58:41.276Z,28.90
2019-03-28T08:59:44.624Z,28.90
2019-03-28T09:00:52.324Z,29.00
2019-03-28T09:01:53.472Z,29.00
2019-03-28T09:02:56.751Z,29.00
2019-03-28T09:04:00.357Z,29.00
2019-03-28T09:05:06.415Z,28.90
2019-03-28T09:06:09.779Z,28.80
2019-03-28T09:07:13.100Z,28.80
2019-03-28T09:08:16.386Z,28.70
2019-03-28T09:09:21.198Z,28.60
2019-03-28T09:10:24.788Z,28.50
2019-03-28T09:11:28.068Z,28.30
2019-03-28T09:12:34.873Z,28.20
2019-03-28T09:13:36.444Z,28.20
2019-03-28T09:14:39.735Z,28.10
2019-03-28T09:15:44.266Z,28.00
2019-03-28T09:16:48.019Z,28.00
2019-03-28T09:17:51.340Z,27.90
2019-03-28T09:18:54.631Z,27.80
2019-03-28T09:19:57.935Z,27.70
2019-03-28T09:21:01.225Z,27.60
2019-03-28T09:22:04.546Z,27.50
2019-03-28T09:23:08.759Z,27.40
2019-03-28T09:24:12.100Z,27.30
2019-03-28T09:25:15.521Z,27.30
2019-03-28T09:26:18.942Z,27.20
2019-03-28T09:27:22.228Z,27.30
2019-03-28T09:28:25.535Z,27.10
2019-03-28T09:29:28.813Z,27.10
2019-03-28T09:30:48.164Z,27.00
2019-03-28T09:31:42.547Z,27.00
2019-03-28T09:32:45.832Z,26.90
2019-03-28T09:33:49.144Z,26.80
2019-03-28T09:34:55.436Z,26.80
2019-03-28T09:35:59.042Z,26.80
2019-03-28T09:37:02.323Z,26.70
2019-03-28T09:38:06.033Z,26.70
2019-03-28T09:39:09.457Z,26.60
2019-03-28T09:40:12.743Z,26.60
2019-03-28T09:41:16.386Z,26.50
2019-03-28T09:42:19.764Z,26.50
2019-03-28T09:43:23.274Z,26.50
2019-03-28T09:44:26.683Z,26.40
2019-03-28T09:45:30.523Z,26.40
2019-03-28T09:46:34.228Z,26.40
2019-03-28T09:47:37.899Z,26.40
2019-03-28T09:48:41.194Z,26.40
2019-03-28T09:49:44.553Z,26.30
2019-03-28T09:50:47.984Z,26.30
2019-03-28T09:51:51.421Z,26.30
2019-03-28T09:52:55.633Z,26.20
2019-03-28T09:53:58.952Z,26.20
2019-03-28T09:55:02.688Z,26.10
2019-03-28T09:56:06.577Z,26.10
2019-03-28T09:57:09.886Z,26.10
2019-03-28T09:58:13.267Z,26.00
2019-03-28T09:59:16.592Z,26.00
2019-03-28T10:00:19.891Z,26.00
2019-03-28T10:01:23.357Z,25.90
2019-03-28T10:02:26.679Z,25.90
2019-03-28T10:03:30.325Z,25.90
2019-03-28T10:04:33.650Z,25.90
2019-03-28T10:05:38.095Z,25.80
2019-03-28T10:06:44.958Z,25.80
2019-03-28T10:07:50.939Z,25.80
2019-03-28T10:08:54.367Z,25.80
2019-03-28T10:09:58.470Z,25.80
2019-03-28T10:11:01.929Z,25.80
2019-03-28T10:12:05.527Z,25.70
2019-03-28T10:13:08.852Z,25.70
2019-03-28T10:14:13.228Z,25.70
2019-03-28T10:15:17.186Z,25.70
2019-03-28T10:16:21.323Z,25.70
2019-03-28T10:17:24.713Z,25.70
2019-03-28T10:18:30.102Z,25.70
2019-03-28T10:19:33.121Z,25.60
2019-03-28T10:20:36.472Z,25.50
2019-03-28T10:21:39.795Z,25.50
2019-03-28T10:22:43.179Z,25.50
2019-03-28T10:23:46.812Z,25.50
2019-03-28T10:24:53.034Z,25.50
2019-03-28T10:25:56.307Z,25.50
2019-03-28T10:26:59.888Z,25.50
2019-03-28T10:28:03.246Z,25.40
2019-03-28T10:29:06.557Z,25.40
2019-03-28T10:30:10.923Z,25.40
2019-03-28T10:31:16.630Z,25.40
2019-03-28T10:32:19.302Z,25.40
2019-03-28T10:33:22.599Z,25.40
2019-03-28T10:34:27.607Z,25.30
2019-03-28T10:35:31.283Z,25.30
2019-03-28T10:36:34.558Z,25.30
2019-03-28T10:37:37.970Z,25.30
2019-03-28T10:38:41.310Z,25.30
2019-03-28T10:39:44.595Z,25.30
2019-03-28T10:40:47.899Z,25.20
2019-03-28T10:41:51.471Z,25.20
2019-03-28T10:42:54.784Z,25.20
2019-03-28T10:43:58.362Z,25.20
2019-03-28T10:45:01.795Z,25.20
2019-03-28T10:46:05.208Z,25.10
2019-03-28T10:47:11.591Z,25.10
2019-03-28T10:48:14.884Z,25.10
2019-03-28T10:49:18.191Z,25.10
2019-03-28T10:50:21.550Z,25.10
2019-03-28T10:51:24.855Z,25.10
2019-03-28T10:52:28.163Z,25.00
2019-03-28T10:53:34.464Z,25.00
2019-03-28T10:54:37.859Z,25.00
2019-03-28T10:55:41.150Z,25.00
2019-03-28T10:56:51.753Z,25.00
2019-03-28T10:57:50.444Z,25.00
2019-03-28T10:58:53.771Z,25.00
2019-03-28T10:59:58.849Z,25.00
2019-03-28T11:01:02.474Z,25.00
2019-03-28T11:02:05.887Z,25.00
2019-03-28T11:03:09.234Z,25.00
2019-03-28T11:04:12.583Z,24.90
2019-03-28T11:05:15.887Z,24.90
2019-03-28T11:06:19.243Z,24.90
2019-03-28T11:07:24.691Z,24.90
2019-03-28T11:08:28.199Z,24.90
2019-03-28T11:09:31.476Z,24.90
2019-03-28T11:10:34.779Z,24.90
2019-03-28T11:11:38.068Z,24.90
2019-03-28T11:12:41.440Z,24.90
2019-03-28T11:13:44.752Z,24.90
2019-03-28T11:14:48.103Z,24.90
2019-03-28T11:15:51.412Z,24.90
2019-03-28T11:16:56.829Z,24.80
2019-03-28T11:18:00.107Z,24.80
2019-03-28T11:19:03.422Z,24.80
2019-03-28T11:20:07.110Z,24.70
2019-03-28T11:21:10.412Z,24.50
2019-03-28T11:22:13.722Z,24.40
2019-03-28T11:23:17.066Z,24.30
2019-03-28T11:24:20.481Z,24.30
2019-03-28T11:25:23.827Z,24.10
2019-03-28T11:26:27.191Z,24.10
2019-03-28T11:27:30.499Z,24.00
2019-03-28T11:28:34.147Z,23.90
2019-03-28T11:29:37.712Z,23.80
2019-03-28T11:30:43.699Z,23.90
2019-03-28T11:31:51.973Z,23.90
2019-03-28T11:32:52.349Z,23.80
2019-03-28T11:33:56.196Z,23.70
2019-03-28T11:34:59.512Z,23.60
2019-03-28T11:36:04.490Z,23.60
2019-03-28T11:37:11.317Z,23.60
2019-03-28T11:38:13.055Z,23.60
2019-03-28T11:39:16.416Z,23.50
2019-03-28T11:40:19.907Z,23.50
2019-03-28T11:41:23.258Z,23.50
2019-03-28T11:42:27.730Z,23.50
2019-03-28T11:43:33.856Z,23.40
2019-03-28T11:44:37.299Z,23.40
2019-03-28T11:45:40.607Z,23.40
2019-03-28T11:46:43.899Z,23.40
2019-03-28T11:47:47.260Z,23.40
2019-03-28T11:48:50.573Z,23.40
2019-03-28T11:49:53.854Z,23.30
2019-03-28T11:50:57.103Z,23.30
2019-03-28T11:52:01.351Z,23.30
2019-03-28T11:53:07.347Z,23.20
2019-03-28T11:54:10.627Z,23.20
2019-03-28T11:55:13.949Z,23.20
2019-03-28T11:56:17.324Z,23.20
2019-03-28T11:57:20.603Z,23.30
2019-03-28T11:58:23.917Z,23.50
2019-03-28T11:59:27.195Z,23.50
2019-03-28T12:00:30.816Z,23.60
2019-03-28T12:01:34.123Z,23.60
2019-03-28T12:02:37.401Z,23.70
2019-03-28T12:03:42.458Z,23.80
2019-03-28T12:04:45.840Z,23.80
2019-03-28T12:05:49.131Z,23.80
2019-03-28T12:06:52.444Z,23.80
2019-03-28T12:07:55.719Z,23.90
2019-03-28T12:08:59.023Z,23.90
2019-03-28T12:10:04.664Z,23.90
2019-03-28T12:11:08.052Z,23.90
2019-03-28T12:12:13.109Z,23.90
2019-03-28T12:13:17.583Z,24.00
2019-03-28T12:14:20.890Z,24.00
2019-03-28T12:15:27.039Z,24.00
2019-03-28T12:16:30.339Z,24.00
2019-03-28T12:17:34.019Z,24.10
2019-03-28T12:18:37.379Z,24.10
2019-03-28T12:19:40.683Z,24.10
2019-03-28T12:20:45.705Z,24.10
2019-03-28T12:21:49.214Z,24.20
2019-03-28T12:22:55.874Z,24.10
2019-03-28T12:23:57.505Z,24.20
2019-03-28T12:25:00.872Z,24.20
2019-03-28T12:26:04.183Z,24.20
2019-03-28T12:27:09.291Z,24.20
2019-03-28T12:28:13.221Z,24.20
2019-03-28T12:29:16.575Z,24.20
2019-03-28T12:30:19.859Z,24.20
2019-03-28T12:31:24.079Z,24.20
2019-03-28T12:32:27.775Z,24.20
2019-03-28T12:33:31.159Z,24.20
2019-03-28T12:34:35.311Z,24.20
2019-03-28T12:35:38.663Z,24.30
2019-03-28T12:36:42.067Z,24.30
2019-03-28T12:37:45.339Z,24.30
2019-03-28T12:38:49.485Z,24.30
2019-03-28T12:39:52.806Z,24.30
2019-03-28T12:40:56.167Z,24.30
2019-03-28T12:41:59.551Z,24.30
2019-03-28T12:43:02.911Z,24.30
2019-03-28T12:44:06.221Z,24.40
2019-03-28T12:45:10.734Z,24.30
2019-03-28T12:46:14.064Z,24.40
2019-03-28T12:47:17.447Z,24.40
2019-03-28T12:48:20.800Z,24.40
2019-03-28T12:49:25.013Z,24.40
2019-03-28T12:50:28.439Z,24.40
2019-03-28T12:51:31.660Z,24.40
2019-03-28T12:52:34.977Z,24.40
2019-03-28T12:53:38.263Z,24.40
2019-03-28T12:54:44.217Z,24.40
2019-03-28T12:55:46.891Z,24.40
2019-03-28T12:56:50.248Z,24.40
2019-03-28T12:57:53.559Z,24.40
2019-03-28T12:58:56.915Z,24.40
2019-03-28T13:00:00.412Z,24.50
2019-03-28T13:01:03.803Z,24.40
2019-03-28T13:02:07.155Z,24.50
2019-03-28T13:03:10.567Z,24.50
2019-03-28T13:04:13.899Z,24.50
2019-03-28T13:05:17.416Z,24.50
2019-03-28T13:06:20.775Z,24.50
2019-03-28T13:07:24.095Z,24.50
2019-03-28T13:08:29.083Z,24.50
2019-03-28T13:09:32.397Z,24.50
2019-03-28T13:10:36.113Z,24.50
2019-03-28T13:11:39.435Z,24.50
2019-03-28T13:12:42.749Z,24.60
2019-03-28T13:13:46.051Z,24.60
2019-03-28T13:14:49.403Z,24.60
2019-03-28T13:15:53.273Z,24.60
2019-03-28T13:16:57.629Z,24.60
2019-03-28T13:18:01.031Z,24.50
2019-03-28T13:19:04.475Z,24.50
2019-03-28T13:20:10.869Z,24.50
2019-03-28T13:21:14.392Z,24.60
2019-03-28T13:22:17.851Z,24.60
2019-03-28T13:23:21.132Z,24.60
2019-03-28T13:24:24.441Z,24.60
2019-03-28T13:25:27.829Z,24.60
2019-03-28T13:26:31.196Z,24.60
2019-03-28T13:27:34.876Z,24.60
2019-03-28T13:28:40.403Z,24.60
2019-03-28T13:29:44.108Z,24.60
2019-03-28T13:30:47.422Z,24.60
2019-03-28T13:31:50.707Z,24.60
2019-03-28T13:32:54.019Z,24.70
2019-03-28T13:33:58.106Z,24.70
2019-03-28T13:35:01.507Z,24.70
2019-03-28T13:36:04.876Z,24.70
2019-03-28T13:37:10.823Z,24.70
2019-03-28T13:38:14.191Z,24.70
2019-03-28T13:39:17.500Z,24.70
2019-03-28T13:40:20.854Z,24.70
2019-03-28T13:41:24.179Z,24.70